sensor_id;sensor_type;location;lat;lon;timestamp;temperature;humidity
80220;DHT22;70247;37.958;23.722;2023-11-19T00:01:35;14.70;31.50
80220;DHT22;70247;37.958;23.722;2023-11-19T00:04:01;14.60;32.10
80220;DHT22;70247;37.958;23.722;2023-11-19T00:06:26;14.70;32.10
80220;DHT22;70247;37.958;23.722;2023-11-19T00:08:53;14.50;31.70
80220;DHT22;70247;37.958;23.722;2023-11-19T00:11:18;14.70;32.60
80220;DHT22;70247;37.958;23.722;2023-11-19T00:13:44;14.40;32.00
80220;DHT22;70247;37.958;23.722;2023-11-19T00:16:09;14.30;32.50
80220;DHT22;70247;37.958;23.722;2023-11-19T00:18:35;14.30;32.30
80220;DHT22;70247;37.958;23.722;2023-11-19T00:21:01;14.50;32.20
80220;DHT22;70247;37.958;23.722;2023-11-19T00:23:27;14.20;32.30
80220;DHT22;70247;37.958;23.722;2023-11-19T00:25:53;14.20;32.30
80220;DHT22;70247;37.958;23.722;2023-11-19T00:28:19;14.20;32.60
80220;DHT22;70247;37.958;23.722;2023-11-19T00:30:44;14.30;32.00
80220;DHT22;70247;37.958;23.722;2023-11-19T00:33:10;14.10;31.50
80220;DHT22;70247;37.958;23.722;2023-11-19T00:35:35;14.10;31.50
80220;DHT22;70247;37.958;23.722;2023-11-19T00:38:01;14.10;31.30
80220;DHT22;70247;37.958;23.722;2023-11-19T00:40:28;14.00;31.90
80220;DHT22;70247;37.958;23.722;2023-11-19T00:42:53;14.00;31.70
80220;DHT22;70247;37.958;23.722;2023-11-19T00:45:19;13.90;30.80
80220;DHT22;70247;37.958;23.722;2023-11-19T00:47:45;13.90;30.20
80220;DHT22;70247;37.958;23.722;2023-11-19T00:50:10;13.90;30.40
80220;DHT22;70247;37.958;23.722;2023-11-19T00:52:37;14.00;30.00
80220;DHT22;70247;37.958;23.722;2023-11-19T00:55:03;13.80;29.70
80220;DHT22;70247;37.958;23.722;2023-11-19T00:57:30;13.80;29.20
80220;DHT22;70247;37.958;23.722;2023-11-19T00:59:55;13.80;29.60
80220;DHT22;70247;37.958;23.722;2023-11-19T01:02:21;13.60;29.30
80220;DHT22;70247;37.958;23.722;2023-11-19T01:04:46;13.60;29.50
80220;DHT22;70247;37.958;23.722;2023-11-19T01:07:12;13.60;29.60
80220;DHT22;70247;37.958;23.722;2023-11-19T01:09:38;13.80;30.00
80220;DHT22;70247;37.958;23.722;2023-11-19T01:12:04;13.80;29.70
80220;DHT22;70247;37.958;23.722;2023-11-19T01:14:30;13.70;30.80
80220;DHT22;70247;37.958;23.722;2023-11-19T01:16:56;13.70;30.00
80220;DHT22;70247;37.958;23.722;2023-11-19T01:19:22;13.80;30.00
80220;DHT22;70247;37.958;23.722;2023-11-19T01:21:48;14.00;29.80
80220;DHT22;70247;37.958;23.722;2023-11-19T01:24:14;13.80;29.40
80220;DHT22;70247;37.958;23.722;2023-11-19T01:26:40;13.60;30.20
80220;DHT22;70247;37.958;23.722;2023-11-19T01:29:13;13.70;31.00
80220;DHT22;70247;37.958;23.722;2023-11-19T01:31:40;13.80;31.50
80220;DHT22;70247;37.958;23.722;2023-11-19T01:34:05;13.80;31.40
80220;DHT22;70247;37.958;23.722;2023-11-19T01:36:31;13.60;31.60
80220;DHT22;70247;37.958;23.722;2023-11-19T01:38:56;13.60;31.80
80220;DHT22;70247;37.958;23.722;2023-11-19T01:41:22;13.50;31.30
80220;DHT22;70247;37.958;23.722;2023-11-19T01:43:47;13.40;31.30
80220;DHT22;70247;37.958;23.722;2023-11-19T01:46:13;13.40;31.40
80220;DHT22;70247;37.958;23.722;2023-11-19T01:48:41;13.50;32.10
80220;DHT22;70247;37.958;23.722;2023-11-19T01:51:08;13.50;31.90
80220;DHT22;70247;37.958;23.722;2023-11-19T01:53:34;13.60;31.40
80220;DHT22;70247;37.958;23.722;2023-11-19T01:56:00;13.60;30.50
80220;DHT22;70247;37.958;23.722;2023-11-19T01:58:26;13.50;30.30
80220;DHT22;70247;37.958;23.722;2023-11-19T02:00:52;13.40;30.80
80220;DHT22;70247;37.958;23.722;2023-11-19T02:03:18;13.40;30.90
80220;DHT22;70247;37.958;23.722;2023-11-19T02:05:45;13.30;30.00
80220;DHT22;70247;37.958;23.722;2023-11-19T02:08:12;13.40;29.80
80220;DHT22;70247;37.958;23.722;2023-11-19T02:10:39;13.40;29.30
80220;DHT22;70247;37.958;23.722;2023-11-19T02:13:04;13.60;29.70
80220;DHT22;70247;37.958;23.722;2023-11-19T02:15:32;13.20;29.50
80220;DHT22;70247;37.958;23.722;2023-11-19T02:17:57;13.20;29.80
80220;DHT22;70247;37.958;23.722;2023-11-19T02:20:42;13.20;30.60
80220;DHT22;70247;37.958;23.722;2023-11-19T02:23:07;13.00;30.10
80220;DHT22;70247;37.958;23.722;2023-11-19T02:25:33;13.10;30.40
80220;DHT22;70247;37.958;23.722;2023-11-19T02:27:59;13.20;30.40
80220;DHT22;70247;37.958;23.722;2023-11-19T02:30:26;13.30;30.30
80220;DHT22;70247;37.958;23.722;2023-11-19T02:32:52;13.40;30.30
80220;DHT22;70247;37.958;23.722;2023-11-19T02:35:18;13.20;30.80
80220;DHT22;70247;37.958;23.722;2023-11-19T02:37:43;13.30;30.30
80220;DHT22;70247;37.958;23.722;2023-11-19T02:40:10;13.30;30.50
80220;DHT22;70247;37.958;23.722;2023-11-19T02:42:36;13.00;30.00
80220;DHT22;70247;37.958;23.722;2023-11-19T02:45:01;13.10;30.30
80220;DHT22;70247;37.958;23.722;2023-11-19T02:47:27;13.30;30.70
80220;DHT22;70247;37.958;23.722;2023-11-19T02:49:55;13.20;30.30
80220;DHT22;70247;37.958;23.722;2023-11-19T02:52:21;13.30;30.20
80220;DHT22;70247;37.958;23.722;2023-11-19T02:54:47;13.10;30.30
80220;DHT22;70247;37.958;23.722;2023-11-19T02:57:12;13.00;30.00
80220;DHT22;70247;37.958;23.722;2023-11-19T02:59:39;12.70;31.30
80220;DHT22;70247;37.958;23.722;2023-11-19T03:02:07;12.80;30.20
80220;DHT22;70247;37.958;23.722;2023-11-19T03:04:36;12.80;30.90
80220;DHT22;70247;37.958;23.722;2023-11-19T03:07:02;12.90;30.70
80220;DHT22;70247;37.958;23.722;2023-11-19T03:09:27;12.90;29.80
80220;DHT22;70247;37.958;23.722;2023-11-19T03:11:54;12.90;30.50
80220;DHT22;70247;37.958;23.722;2023-11-19T03:14:20;13.20;30.00
80220;DHT22;70247;37.958;23.722;2023-11-19T03:16:46;13.20;30.40
80220;DHT22;70247;37.958;23.722;2023-11-19T03:19:14;13.10;30.10
80220;DHT22;70247;37.958;23.722;2023-11-19T03:21:40;13.20;31.10
80220;DHT22;70247;37.958;23.722;2023-11-19T03:24:06;13.10;30.30
80220;DHT22;70247;37.958;23.722;2023-11-19T03:26:32;13.20;30.00
80220;DHT22;70247;37.958;23.722;2023-11-19T03:28:59;13.10;30.20
80220;DHT22;70247;37.958;23.722;2023-11-19T03:31:24;12.90;30.30
80220;DHT22;70247;37.958;23.722;2023-11-19T03:33:51;13.10;31.10
80220;DHT22;70247;37.958;23.722;2023-11-19T03:36:16;13.10;30.80
80220;DHT22;70247;37.958;23.722;2023-11-19T03:38:42;13.20;31.00
80220;DHT22;70247;37.958;23.722;2023-11-19T03:41:14;13.20;30.70
80220;DHT22;70247;37.958;23.722;2023-11-19T03:43:40;13.10;30.40
80220;DHT22;70247;37.958;23.722;2023-11-19T03:46:18;12.80;30.50
80220;DHT22;70247;37.958;23.722;2023-11-19T03:48:44;12.70;30.80
80220;DHT22;70247;37.958;23.722;2023-11-19T03:51:10;12.70;31.30
80220;DHT22;70247;37.958;23.722;2023-11-19T03:53:37;13.00;30.90
80220;DHT22;70247;37.958;23.722;2023-11-19T03:56:02;13.10;31.10
80220;DHT22;70247;37.958;23.722;2023-11-19T03:58:29;13.10;30.90
80220;DHT22;70247;37.958;23.722;2023-11-19T04:00:54;12.90;30.20
80220;DHT22;70247;37.958;23.722;2023-11-19T04:03:20;12.90;31.30
80220;DHT22;70247;37.958;23.722;2023-11-19T04:05:45;12.80;30.70
80220;DHT22;70247;37.958;23.722;2023-11-19T04:08:11;12.90;31.30
80220;DHT22;70247;37.958;23.722;2023-11-19T04:10:36;12.90;30.90
80220;DHT22;70247;37.958;23.722;2023-11-19T04:13:02;12.70;30.40
80220;DHT22;70247;37.958;23.722;2023-11-19T04:15:27;12.50;31.10
80220;DHT22;70247;37.958;23.722;2023-11-19T04:17:53;12.60;31.20
80220;DHT22;70247;37.958;23.722;2023-11-19T04:20:18;12.50;31.10
80220;DHT22;70247;37.958;23.722;2023-11-19T04:22:44;12.40;31.30
80220;DHT22;70247;37.958;23.722;2023-11-19T04:25:10;12.50;32.40
80220;DHT22;70247;37.958;23.722;2023-11-19T04:27:36;12.50;31.60
80220;DHT22;70247;37.958;23.722;2023-11-19T04:30:02;12.50;31.60
80220;DHT22;70247;37.958;23.722;2023-11-19T04:32:28;12.60;31.30
80220;DHT22;70247;37.958;23.722;2023-11-19T04:34:54;12.40;31.20
80220;DHT22;70247;37.958;23.722;2023-11-19T04:37:20;12.30;31.70
80220;DHT22;70247;37.958;23.722;2023-11-19T04:39:45;12.30;31.90
80220;DHT22;70247;37.958;23.722;2023-11-19T04:42:11;12.20;31.90
80220;DHT22;70247;37.958;23.722;2023-11-19T04:44:37;12.10;32.70
80220;DHT22;70247;37.958;23.722;2023-11-19T04:47:03;12.30;33.10
80220;DHT22;70247;37.958;23.722;2023-11-19T04:49:29;12.20;32.60
80220;DHT22;70247;37.958;23.722;2023-11-19T04:51:55;12.10;32.50
80220;DHT22;70247;37.958;23.722;2023-11-19T04:54:21;12.20;33.30
80220;DHT22;70247;37.958;23.722;2023-11-19T04:56:47;12.40;32.60
80220;DHT22;70247;37.958;23.722;2023-11-19T04:59:12;12.30;33.10
80220;DHT22;70247;37.958;23.722;2023-11-19T05:01:38;12.40;33.00
80220;DHT22;70247;37.958;23.722;2023-11-19T05:04:04;12.30;32.70
80220;DHT22;70247;37.958;23.722;2023-11-19T05:06:29;12.30;33.00
80220;DHT22;70247;37.958;23.722;2023-11-19T05:08:56;12.40;32.90
80220;DHT22;70247;37.958;23.722;2023-11-19T05:11:22;12.10;33.10
80220;DHT22;70247;37.958;23.722;2023-11-19T05:13:47;12.20;32.80
80220;DHT22;70247;37.958;23.722;2023-11-19T05:16:13;12.20;33.10
80220;DHT22;70247;37.958;23.722;2023-11-19T05:18:42;12.10;33.30
80220;DHT22;70247;37.958;23.722;2023-11-19T05:21:08;12.30;33.70
80220;DHT22;70247;37.958;23.722;2023-11-19T05:23:34;12.30;33.20
80220;DHT22;70247;37.958;23.722;2023-11-19T05:26:03;12.50;32.40
80220;DHT22;70247;37.958;23.722;2023-11-19T05:28:28;12.60;32.60
80220;DHT22;70247;37.958;23.722;2023-11-19T05:30:54;12.60;32.70
80220;DHT22;70247;37.958;23.722;2023-11-19T05:33:20;12.50;32.10
80220;DHT22;70247;37.958;23.722;2023-11-19T05:35:46;12.40;32.10
80220;DHT22;70247;37.958;23.722;2023-11-19T05:38:12;12.30;32.80
80220;DHT22;70247;37.958;23.722;2023-11-19T05:40:37;12.30;33.20
80220;DHT22;70247;37.958;23.722;2023-11-19T05:43:04;12.30;32.90
80220;DHT22;70247;37.958;23.722;2023-11-19T05:45:30;12.40;32.60
80220;DHT22;70247;37.958;23.722;2023-11-19T05:47:56;12.30;33.70
80220;DHT22;70247;37.958;23.722;2023-11-19T05:50:22;12.40;33.00
80220;DHT22;70247;37.958;23.722;2023-11-19T05:52:48;12.60;32.30
80220;DHT22;70247;37.958;23.722;2023-11-19T05:55:13;12.70;32.80
80220;DHT22;70247;37.958;23.722;2023-11-19T05:57:39;12.70;33.20
80220;DHT22;70247;37.958;23.722;2023-11-19T06:00:05;12.70;32.60
80220;DHT22;70247;37.958;23.722;2023-11-19T06:02:34;12.90;33.00
80220;DHT22;70247;37.958;23.722;2023-11-19T06:05:00;12.70;32.30
80220;DHT22;70247;37.958;23.722;2023-11-19T06:07:27;12.80;32.90
80220;DHT22;70247;37.958;23.722;2023-11-19T06:09:53;12.60;32.30
80220;DHT22;70247;37.958;23.722;2023-11-19T06:12:18;12.90;32.70
80220;DHT22;70247;37.958;23.722;2023-11-19T06:14:44;12.80;32.60
80220;DHT22;70247;37.958;23.722;2023-11-19T06:17:09;12.90;32.60
80220;DHT22;70247;37.958;23.722;2023-11-19T06:19:36;13.00;32.90
80220;DHT22;70247;37.958;23.722;2023-11-19T06:22:03;12.90;32.90
80220;DHT22;70247;37.958;23.722;2023-11-19T06:24:29;12.80;33.20
80220;DHT22;70247;37.958;23.722;2023-11-19T06:26:54;13.00;33.00
80220;DHT22;70247;37.958;23.722;2023-11-19T06:29:20;13.00;33.60
80220;DHT22;70247;37.958;23.722;2023-11-19T06:31:45;13.30;32.80
80220;DHT22;70247;37.958;23.722;2023-11-19T06:34:14;13.20;32.80
80220;DHT22;70247;37.958;23.722;2023-11-19T06:36:39;13.10;32.90
80220;DHT22;70247;37.958;23.722;2023-11-19T06:39:05;13.10;33.60
80220;DHT22;70247;37.958;23.722;2023-11-19T06:41:31;13.40;33.40
80220;DHT22;70247;37.958;23.722;2023-11-19T06:43:56;13.60;33.20
80220;DHT22;70247;37.958;23.722;2023-11-19T06:46:22;13.80;31.90
80220;DHT22;70247;37.958;23.722;2023-11-19T06:48:48;14.00;31.60
80220;DHT22;70247;37.958;23.722;2023-11-19T06:51:13;14.50;31.30
80220;DHT22;70247;37.958;23.722;2023-11-19T06:53:39;14.70;30.80
80220;DHT22;70247;37.958;23.722;2023-11-19T06:56:19;14.80;30.10
80220;DHT22;70247;37.958;23.722;2023-11-19T06:58:45;15.00;30.20
80220;DHT22;70247;37.958;23.722;2023-11-19T07:01:11;15.10;30.30
80220;DHT22;70247;37.958;23.722;2023-11-19T07:03:36;15.10;30.60
80220;DHT22;70247;37.958;23.722;2023-11-19T07:06:02;15.10;30.30
80220;DHT22;70247;37.958;23.722;2023-11-19T07:08:29;15.30;30.10
80220;DHT22;70247;37.958;23.722;2023-11-19T07:10:54;15.30;29.80
80220;DHT22;70247;37.958;23.722;2023-11-19T07:13:20;15.40;29.70
80220;DHT22;70247;37.958;23.722;2023-11-19T07:15:46;15.60;29.10
80220;DHT22;70247;37.958;23.722;2023-11-19T07:18:11;15.60;29.70
80220;DHT22;70247;37.958;23.722;2023-11-19T07:20:37;15.80;30.20
80220;DHT22;70247;37.958;23.722;2023-11-19T07:23:03;15.30;29.70
80220;DHT22;70247;37.958;23.722;2023-11-19T07:25:29;15.40;31.70
80220;DHT22;70247;37.958;23.722;2023-11-19T07:27:54;15.30;30.70
80220;DHT22;70247;37.958;23.722;2023-11-19T07:30:20;15.30;31.70
80220;DHT22;70247;37.958;23.722;2023-11-19T07:32:46;15.30;32.70
80220;DHT22;70247;37.958;23.722;2023-11-19T07:35:11;15.30;32.40
80220;DHT22;70247;37.958;23.722;2023-11-19T07:37:37;15.20;32.10
80220;DHT22;70247;37.958;23.722;2023-11-19T07:40:02;15.10;32.00
80220;DHT22;70247;37.958;23.722;2023-11-19T07:42:28;14.70;33.30
80220;DHT22;70247;37.958;23.722;2023-11-19T07:44:54;14.70;33.10
80220;DHT22;70247;37.958;23.722;2023-11-19T07:47:21;14.80;33.70
80220;DHT22;70247;37.958;23.722;2023-11-19T07:49:49;15.00;32.90
80220;DHT22;70247;37.958;23.722;2023-11-19T07:52:15;15.00;32.90
80220;DHT22;70247;37.958;23.722;2023-11-19T07:54:41;15.00;32.50
80220;DHT22;70247;37.958;23.722;2023-11-19T07:57:08;14.90;32.20
80220;DHT22;70247;37.958;23.722;2023-11-19T07:59:34;14.80;33.10
80220;DHT22;70247;37.958;23.722;2023-11-19T08:02:00;14.80;34.00
80220;DHT22;70247;37.958;23.722;2023-11-19T08:04:25;14.60;33.50
80220;DHT22;70247;37.958;23.722;2023-11-19T08:06:51;14.40;34.10
80220;DHT22;70247;37.958;23.722;2023-11-19T08:09:17;14.60;34.50
80220;DHT22;70247;37.958;23.722;2023-11-19T08:11:42;14.50;33.30
80220;DHT22;70247;37.958;23.722;2023-11-19T08:14:08;14.40;33.10
80220;DHT22;70247;37.958;23.722;2023-11-19T08:16:34;14.50;34.40
80220;DHT22;70247;37.958;23.722;2023-11-19T08:18:59;14.80;34.60
80220;DHT22;70247;37.958;23.722;2023-11-19T08:21:25;14.50;33.50
80220;DHT22;70247;37.958;23.722;2023-11-19T08:23:52;14.50;34.50
80220;DHT22;70247;37.958;23.722;2023-11-19T08:26:17;14.40;34.30
80220;DHT22;70247;37.958;23.722;2023-11-19T08:28:43;14.60;34.00
80220;DHT22;70247;37.958;23.722;2023-11-19T08:31:09;14.60;33.60
80220;DHT22;70247;37.958;23.722;2023-11-19T08:33:34;14.50;33.50
80220;DHT22;70247;37.958;23.722;2023-11-19T08:36:00;14.70;34.60
80220;DHT22;70247;37.958;23.722;2023-11-19T08:38:26;14.90;34.50
80220;DHT22;70247;37.958;23.722;2023-11-19T08:40:52;15.10;32.40
80220;DHT22;70247;37.958;23.722;2023-11-19T08:43:17;15.30;33.40
80220;DHT22;70247;37.958;23.722;2023-11-19T08:45:43;14.90;33.30
80220;DHT22;70247;37.958;23.722;2023-11-19T08:48:09;14.90;33.70
80220;DHT22;70247;37.958;23.722;2023-11-19T08:50:34;14.80;34.30
80220;DHT22;70247;37.958;23.722;2023-11-19T08:53:00;15.00;34.20
80220;DHT22;70247;37.958;23.722;2023-11-19T08:55:25;15.10;33.70
80220;DHT22;70247;37.958;23.722;2023-11-19T08:57:51;15.20;33.60
80220;DHT22;70247;37.958;23.722;2023-11-19T09:00:17;15.20;34.20
80220;DHT22;70247;37.958;23.722;2023-11-19T09:02:43;15.30;34.00
80220;DHT22;70247;37.958;23.722;2023-11-19T09:05:08;15.10;33.60
80220;DHT22;70247;37.958;23.722;2023-11-19T09:07:34;15.30;33.50
80220;DHT22;70247;37.958;23.722;2023-11-19T09:10:00;15.90;33.00
80220;DHT22;70247;37.958;23.722;2023-11-19T09:12:25;17.10;31.00
80220;DHT22;70247;37.958;23.722;2023-11-19T09:14:51;19.20;29.20
80220;DHT22;70247;37.958;23.722;2023-11-19T09:17:16;21.00;26.90
80220;DHT22;70247;37.958;23.722;2023-11-19T09:19:43;22.40;25.40
80220;DHT22;70247;37.958;23.722;2023-11-19T09:22:08;23.50;24.60
80220;DHT22;70247;37.958;23.722;2023-11-19T09:24:34;24.90;23.00
80220;DHT22;70247;37.958;23.722;2023-11-19T09:26:59;25.60;22.70
80220;DHT22;70247;37.958;23.722;2023-11-19T09:29:25;26.30;21.80
80220;DHT22;70247;37.958;23.722;2023-11-19T09:31:51;27.20;22.20
80220;DHT22;70247;37.958;23.722;2023-11-19T09:34:17;28.50;21.30
80220;DHT22;70247;37.958;23.722;2023-11-19T09:36:42;28.40;20.70
80220;DHT22;70247;37.958;23.722;2023-11-19T09:39:10;26.90;21.20
80220;DHT22;70247;37.958;23.722;2023-11-19T09:41:35;26.00;22.60
80220;DHT22;70247;37.958;23.722;2023-11-19T09:44:01;25.50;22.80
80220;DHT22;70247;37.958;23.722;2023-11-19T09:46:27;24.30;23.60
80220;DHT22;70247;37.958;23.722;2023-11-19T09:48:53;22.90;25.00
80220;DHT22;70247;37.958;23.722;2023-11-19T09:51:21;21.80;25.50
80220;DHT22;70247;37.958;23.722;2023-11-19T09:53:50;21.30;25.90
80220;DHT22;70247;37.958;23.722;2023-11-19T09:56:15;22.20;25.00
80220;DHT22;70247;37.958;23.722;2023-11-19T09:58:44;24.10;24.00
80220;DHT22;70247;37.958;23.722;2023-11-19T10:01:09;25.10;22.70
80220;DHT22;70247;37.958;23.722;2023-11-19T10:03:37;26.60;22.20
80220;DHT22;70247;37.958;23.722;2023-11-19T10:06:06;27.60;21.50
80220;DHT22;70247;37.958;23.722;2023-11-19T10:08:33;28.00;21.20
80220;DHT22;70247;37.958;23.722;2023-11-19T10:10:58;27.60;21.20
80220;DHT22;70247;37.958;23.722;2023-11-19T10:13:30;28.00;21.30
80220;DHT22;70247;37.958;23.722;2023-11-19T10:15:56;28.60;20.70
80220;DHT22;70247;37.958;23.722;2023-11-19T10:18:27;28.90;20.40
80220;DHT22;70247;37.958;23.722;2023-11-19T10:20:53;29.00;20.20
80220;DHT22;70247;37.958;23.722;2023-11-19T10:23:20;28.50;20.50
80220;DHT22;70247;37.958;23.722;2023-11-19T10:25:46;29.10;20.80
80220;DHT22;70247;37.958;23.722;2023-11-19T10:28:11;29.70;20.10
80220;DHT22;70247;37.958;23.722;2023-11-19T10:30:37;29.70;20.00
80220;DHT22;70247;37.958;23.722;2023-11-19T10:33:03;30.20;19.70
80220;DHT22;70247;37.958;23.722;2023-11-19T10:35:31;30.10;20.20
80220;DHT22;70247;37.958;23.722;2023-11-19T10:37:58;30.50;20.10
80220;DHT22;70247;37.958;23.722;2023-11-19T10:40:24;30.60;19.70
80220;DHT22;70247;37.958;23.722;2023-11-19T10:43:02;30.30;20.00
80220;DHT22;70247;37.958;23.722;2023-11-19T10:45:28;30.00;19.60
80220;DHT22;70247;37.958;23.722;2023-11-19T10:47:54;30.30;19.60
80220;DHT22;70247;37.958;23.722;2023-11-19T10:50:20;29.80;20.30
80220;DHT22;70247;37.958;23.722;2023-11-19T10:52:46;29.80;19.70
80220;DHT22;70247;37.958;23.722;2023-11-19T10:55:13;29.50;19.80
80220;DHT22;70247;37.958;23.722;2023-11-19T10:57:40;29.60;20.10
80220;DHT22;70247;37.958;23.722;2023-11-19T11:00:09;29.00;20.20
80220;DHT22;70247;37.958;23.722;2023-11-19T11:02:39;29.00;20.30
80220;DHT22;70247;37.958;23.722;2023-11-19T11:05:06;28.90;20.10
80220;DHT22;70247;37.958;23.722;2023-11-19T11:07:33;28.80;21.50
80220;DHT22;70247;37.958;23.722;2023-11-19T11:09:59;28.80;21.10
80220;DHT22;70247;37.958;23.722;2023-11-19T11:12:25;28.50;20.60
80220;DHT22;70247;37.958;23.722;2023-11-19T11:14:51;28.20;20.40
80220;DHT22;70247;37.958;23.722;2023-11-19T11:17:18;27.90;20.40
80220;DHT22;70247;37.958;23.722;2023-11-19T11:19:45;28.00;20.90
80220;DHT22;70247;37.958;23.722;2023-11-19T11:22:11;27.90;20.10
80220;DHT22;70247;37.958;23.722;2023-11-19T11:35:12;27.30;20.80
80220;DHT22;70247;37.958;23.722;2023-11-19T11:37:45;27.20;21.20
80220;DHT22;70247;37.958;23.722;2023-11-19T11:40:16;26.90;21.10
80220;DHT22;70247;37.958;23.722;2023-11-19T11:42:43;26.40;21.30
80220;DHT22;70247;37.958;23.722;2023-11-19T11:45:10;26.20;21.90
80220;DHT22;70247;37.958;23.722;2023-11-19T11:55:26;25.40;22.30
80220;DHT22;70247;37.958;23.722;2023-11-19T11:57:52;25.20;22.90
80220;DHT22;70247;37.958;23.722;2023-11-19T12:00:30;25.30;22.90
80220;DHT22;70247;37.958;23.722;2023-11-19T12:02:59;25.10;22.10
80220;DHT22;70247;37.958;23.722;2023-11-19T12:05:25;24.80;22.60
80220;DHT22;70247;37.958;23.722;2023-11-19T12:07:56;24.30;23.90
80220;DHT22;70247;37.958;23.722;2023-11-19T12:10:25;23.90;24.60
80220;DHT22;70247;37.958;23.722;2023-11-19T12:12:58;23.00;23.20
80220;DHT22;70247;37.958;23.722;2023-11-19T12:15:24;22.60;24.00
80220;DHT22;70247;37.958;23.722;2023-11-19T12:17:52;22.40;24.90
80220;DHT22;70247;37.958;23.722;2023-11-19T12:20:18;22.20;25.10
80220;DHT22;70247;37.958;23.722;2023-11-19T12:22:45;21.90;24.50
80220;DHT22;70247;37.958;23.722;2023-11-19T12:25:11;21.50;25.10
80220;DHT22;70247;37.958;23.722;2023-11-19T12:27:44;21.10;24.60
80220;DHT22;70247;37.958;23.722;2023-11-19T12:30:10;20.70;25.70
80220;DHT22;70247;37.958;23.722;2023-11-19T12:32:42;20.50;26.20
80220;DHT22;70247;37.958;23.722;2023-11-19T12:35:08;20.70;26.10
80220;DHT22;70247;37.958;23.722;2023-11-19T12:37:43;19.80;25.60
80220;DHT22;70247;37.958;23.722;2023-11-19T12:40:22;19.50;26.00
80220;DHT22;70247;37.958;23.722;2023-11-19T12:42:48;19.30;26.50
80220;DHT22;70247;37.958;23.722;2023-11-19T12:45:14;19.20;26.60
80220;DHT22;70247;37.958;23.722;2023-11-19T12:47:41;19.10;26.80
80220;DHT22;70247;37.958;23.722;2023-11-19T12:50:07;19.10;26.80
80220;DHT22;70247;37.958;23.722;2023-11-19T12:52:34;19.30;26.80
80220;DHT22;70247;37.958;23.722;2023-11-19T12:54:59;19.40;26.00
80220;DHT22;70247;37.958;23.722;2023-11-19T12:57:40;19.30;27.60
80220;DHT22;70247;37.958;23.722;2023-11-19T13:00:06;19.40;26.90
80220;DHT22;70247;37.958;23.722;2023-11-19T13:02:48;19.20;27.30
80220;DHT22;70247;37.958;23.722;2023-11-19T13:10:28;19.30;27.60
80220;DHT22;70247;37.958;23.722;2023-11-19T13:13:00;19.50;26.00
80220;DHT22;70247;37.958;23.722;2023-11-19T13:15:26;19.30;25.90
80220;DHT22;70247;37.958;23.722;2023-11-19T13:17:52;19.20;26.80
80220;DHT22;70247;37.958;23.722;2023-11-19T13:20:18;19.10;25.80
80220;DHT22;70247;37.958;23.722;2023-11-19T13:22:56;19.00;26.10
80220;DHT22;70247;37.958;23.722;2023-11-19T13:25:22;18.80;25.70
80220;DHT22;70247;37.958;23.722;2023-11-19T13:27:47;18.80;26.40
80220;DHT22;70247;37.958;23.722;2023-11-19T13:30:13;18.60;26.20
80220;DHT22;70247;37.958;23.722;2023-11-19T13:32:39;18.60;26.00
80220;DHT22;70247;37.958;23.722;2023-11-19T13:35:04;18.70;26.80
80220;DHT22;70247;37.958;23.722;2023-11-19T13:37:30;18.80;27.00
80220;DHT22;70247;37.958;23.722;2023-11-19T13:39:56;18.90;27.20
80220;DHT22;70247;37.958;23.722;2023-11-19T13:42:21;18.50;25.70
80220;DHT22;70247;37.958;23.722;2023-11-19T13:44:47;18.40;26.10
80220;DHT22;70247;37.958;23.722;2023-11-19T13:47:12;18.20;26.80
80220;DHT22;70247;37.958;23.722;2023-11-19T13:49:39;18.20;26.50
80220;DHT22;70247;37.958;23.722;2023-11-19T13:52:05;18.10;27.70
80220;DHT22;70247;37.958;23.722;2023-11-19T13:54:30;18.10;28.30
80220;DHT22;70247;37.958;23.722;2023-11-19T13:56:56;18.00;26.50
80220;DHT22;70247;37.958;23.722;2023-11-19T13:59:23;17.90;27.80
80220;DHT22;70247;37.958;23.722;2023-11-19T14:01:49;18.00;29.50
80220;DHT22;70247;37.958;23.722;2023-11-19T14:04:14;18.10;29.50
80220;DHT22;70247;37.958;23.722;2023-11-19T14:06:40;18.20;28.10
80220;DHT22;70247;37.958;23.722;2023-11-19T14:09:08;18.10;29.60
80220;DHT22;70247;37.958;23.722;2023-11-19T14:11:35;18.00;27.30
80220;DHT22;70247;37.958;23.722;2023-11-19T14:14:00;18.10;27.70
80220;DHT22;70247;37.958;23.722;2023-11-19T14:16:26;18.20;28.70
80220;DHT22;70247;37.958;23.722;2023-11-19T14:18:52;18.20;26.40
80220;DHT22;70247;37.958;23.722;2023-11-19T14:21:17;18.10;27.90
80220;DHT22;70247;37.958;23.722;2023-11-19T14:23:43;18.00;27.90
80220;DHT22;70247;37.958;23.722;2023-11-19T14:26:09;17.80;27.80
80220;DHT22;70247;37.958;23.722;2023-11-19T14:28:35;17.70;29.30
80220;DHT22;70247;37.958;23.722;2023-11-19T14:31:00;17.50;29.60
80220;DHT22;70247;37.958;23.722;2023-11-19T14:33:26;17.40;29.20
80220;DHT22;70247;37.958;23.722;2023-11-19T14:35:52;17.50;29.10
80220;DHT22;70247;37.958;23.722;2023-11-19T14:38:17;17.50;30.00
80220;DHT22;70247;37.958;23.722;2023-11-19T14:40:43;17.30;28.00
80220;DHT22;70247;37.958;23.722;2023-11-19T14:43:09;17.40;29.20
80220;DHT22;70247;37.958;23.722;2023-11-19T14:45:35;17.30;28.00
80220;DHT22;70247;37.958;23.722;2023-11-19T14:48:01;17.40;28.90
80220;DHT22;70247;37.958;23.722;2023-11-19T14:50:26;17.30;28.80
80220;DHT22;70247;37.958;23.722;2023-11-19T14:52:53;17.30;28.20
80220;DHT22;70247;37.958;23.722;2023-11-19T14:55:19;17.30;27.60
80220;DHT22;70247;37.958;23.722;2023-11-19T14:57:44;17.30;28.60
80220;DHT22;70247;37.958;23.722;2023-11-19T15:00:10;17.30;27.90
80220;DHT22;70247;37.958;23.722;2023-11-19T15:02:39;17.30;28.00
80220;DHT22;70247;37.958;23.722;2023-11-19T15:05:06;17.20;29.60
80220;DHT22;70247;37.958;23.722;2023-11-19T15:07:32;17.10;29.50
80220;DHT22;70247;37.958;23.722;2023-11-19T15:09:57;17.00;29.80
80220;DHT22;70247;37.958;23.722;2023-11-19T15:12:23;16.80;28.40
80220;DHT22;70247;37.958;23.722;2023-11-19T15:14:49;16.60;28.90
80220;DHT22;70247;37.958;23.722;2023-11-19T15:17:14;16.70;27.60
80220;DHT22;70247;37.958;23.722;2023-11-19T15:19:40;16.70;27.70
80220;DHT22;70247;37.958;23.722;2023-11-19T15:22:05;16.80;29.20
80220;DHT22;70247;37.958;23.722;2023-11-19T15:24:31;16.80;29.10
80220;DHT22;70247;37.958;23.722;2023-11-19T15:26:57;16.80;29.10
80220;DHT22;70247;37.958;23.722;2023-11-19T15:29:23;16.80;29.70
80220;DHT22;70247;37.958;23.722;2023-11-19T15:31:48;16.70;29.20
80220;DHT22;70247;37.958;23.722;2023-11-19T15:34:14;16.70;29.20